TimeCST,TemperatureF,Dew PointF,Humidity,Sea Level PressureIn,VisibilityMPH,Wind Direction,Wind SpeedMPH,Gust SpeedMPH,PrecipitationIn,Events,Conditions,WindDirDegrees,DateUTC
12:56 AM,46.9,37.0,68,30.13,10.0,North,5.8,-,N/A,,Clear,350,2012-11-08 06:56:00
1:56 AM,45.0,37.0,74,30.14,10.0,NNW,5.8,-,N/A,,Clear,340,2012-11-08 07:56:00
2:56 AM,45.0,37.9,76,30.15,10.0,NNW,4.6,-,N/A,,Clear,330,2012-11-08 08:56:00
3:56 AM,43.0,37.9,82,30.16,10.0,North,5.8,-,N/A,,Clear,350,2012-11-08 09:56:00
4:56 AM,42.1,37.9,85,30.17,10.0,North,4.6,-,N/A,,Clear,350,2012-11-08 10:56:00
5:56 AM,39.9,37.0,89,30.19,10.0,NNW,6.9,-,N/A,,Clear,340,2012-11-08 11:56:00
6:56 AM,43.0,39.0,86,30.21,10.0,North,6.9,-,N/A,,Clear,350,2012-11-08 12:56:00
7:56 AM,48.9,41.0,74,30.23,10.0,North,5.8,-,N/A,,Clear,360,2012-11-08 13:56:00
8:56 AM,54.0,42.1,64,30.24,10.0,NNE,5.8,-,N/A,,Clear,30,2012-11-08 14:56:00
9:56 AM,57.0,42.1,57,30.25,10.0,Variable,3.5,-,N/A,,Clear,0,2012-11-08 15:56:00
10:56 AM,61.0,39.9,46,30.23,10.0,NNE,8.1,-,N/A,,Clear,20,2012-11-08 16:56:00
11:56 AM,62.1,39.9,44,30.20,10.0,ENE,5.8,-,N/A,,Clear,60,2012-11-08 17:56:00
12:56 PM,61.0,43.0,52,30.18,10.0,South,5.8,-,N/A,,Clear,170,2012-11-08 18:56:00
1:56 PM,62.1,43.0,50,30.17,10.0,South,6.9,-,N/A,,Clear,190,2012-11-08 19:56:00
2:56 PM,62.1,44.1,52,30.17,10.0,SSW,5.8,-,N/A,,Clear,200,2012-11-08 20:56:00
3:56 PM,60.1,46.0,60,30.17,10.0,SW,6.9,-,N/A,,Clear,220,2012-11-08 21:56:00
4:56 PM,55.9,46.9,72,30.18,10.0,Calm,Calm,-,N/A,,Clear,0,2012-11-08 22:56:00
5:56 PM,48.9,46.0,90,30.19,10.0,Calm,Calm,-,N/A,,Clear,0,2012-11-08 23:56:00
6:56 PM,45.0,44.1,97,30.20,10.0,Calm,Calm,-,N/A,,Clear,0,2012-11-09 00:56:00
7:56 PM,43.0,43.0,100,30.21,10.0,Calm,Calm,-,N/A,,Clear,0,2012-11-09 01:56:00
8:56 PM,41.0,41.0,100,30.22,10.0,Calm,Calm,-,N/A,,Clear,0,2012-11-09 02:56:00
9:56 PM,41.0,39.9,96,30.22,10.0,Calm,Calm,-,N/A,,Clear,0,2012-11-09 03:56:00
10:56 PM,41.0,39.9,96,30.22,10.0,Calm,Calm,-,N/A,,Clear,0,2012-11-09 04:56:00
11:56 PM,39.9,39.9,100,30.22,7.0,Calm,Calm,-,0.00,Rain,Light Rain,0,2012-11-09 05:56:00